Time;durP1;ratioP1;P1;durP2;ratioP2;P2;SDS_P1;SDS_P2;PMS_P1;PMS_P2;Temp;Humidity;BMP_temperature;BMP_pressure;BME280_temperature;BME280_humidity;BME280_pressure;Samples;Min_cycle;Max_cycle;Signal;HPM_P1;HPM_P2
2022/04/26 03:38:31;;;;;;;10.30;5.47;;;;;;;6.18;94.71;98558.75;5073210;28;20122;-71
2022/04/26 03:41:17;;;;;;;12.15;5.20;;;;;;;6.16;94.59;98564.03;5073131;28;20045;-71
2022/04/26 03:44:03;;;;;;;14.80;7.13;;;;;;;6.06;94.47;98574.06;5057898;28;20037;-70
2022/04/26 03:46:49;;;;;;;7.47;4.22;;;;;;;5.83;95.10;98567.44;5072896;28;20045;-71
2022/04/26 03:49:35;;;;;;;10.05;5.32;;;;;;;6.06;95.15;98574.06;5072864;28;20136;-71
2022/04/26 03:52:20;;;;;;;8.82;4.40;;;;;;;6.08;93.80;98576.59;5072786;28;20076;-70
2022/04/26 03:55:06;;;;;;;10.52;5.13;;;;;;;5.90;94.26;98585.25;5071551;28;20040;-71
2022/04/26 03:57:50;;;;;;;10.07;5.78;;;;;;;5.90;94.94;98585.25;5072737;28;20032;-70
2022/04/26 04:00:35;;;;;;;10.10;4.63;;;;;;;5.83;94.96;98583.88;5071688;28;20041;-70
2022/04/26 04:03:20;;;;;;;7.85;4.90;;;;;;;6.10;94.42;98592.97;5071538;28;20040;-71
2022/04/26 04:06:05;;;;;;;15.98;7.45;;;;;;;6.18;94.12;98595.16;5076764;28;20072;-73
2022/04/26 04:08:51;;;;;;;8.50;4.43;;;;;;;6.27;93.45;98595.50;5071585;28;20098;-71
2022/04/26 04:11:36;;;;;;;11.50;6.30;;;;;;;6.35;92.94;98600.28;5071254;28;20060;-70
2022/04/26 04:14:21;;;;;;;13.68;6.78;;;;;;;6.25;93.45;98594.75;5070044;28;20048;-71
2022/04/26 04:17:06;;;;;;;12.02;6.03;;;;;;;6.25;93.96;98596.53;5069762;28;20082;-72
2022/04/26 04:19:52;;;;;;;12.25;6.50;;;;;;;6.21;94.31;98598.44;5054210;28;20039;-70
2022/04/26 04:22:38;;;;;;;14.98;7.38;;;;;;;6.18;94.83;98609.00;5056809;28;20375;-73
2022/04/26 04:25:22;;;;;;;14.90;7.20;;;;;;;6.06;96.27;98614.84;5065789;28;20670;-70
2022/04/26 04:28:07;;;;;;;12.00;5.97;;;;;;;5.89;97.19;98604.38;5071896;28;20579;-72
2022/04/26 04:30:52;;;;;;;12.30;7.43;;;;;;;5.84;97.90;98603.78;5056763;28;20040;-70
2022/04/26 04:33:38;;;;;;;11.63;6.45;;;;;;;5.79;98.99;98603.19;5072025;28;20032;-70
2022/04/26 04:36:23;;;;;;;12.02;6.45;;;;;;;5.90;99.23;98605.22;5070125;28;20454;-75
2022/04/26 04:39:09;;;;;;;15.05;7.38;;;;;;;6.18;98.34;98611.63;5070418;28;20136;-74
2022/04/26 04:41:53;;;;;;;7.07;3.83;;;;;;;6.63;100.00;98606.63;5058166;28;20091;-71
2022/04/26 04:44:38;;;;;;;13.25;7.30;;;;;;;7.01;96.70;98602.81;5051141;28;20379;-74
2022/04/26 04:47:23;;;;;;;9.23;5.63;;;;;;;7.10;95.72;98608.44;5052129;28;20479;-75
2022/04/26 04:50:09;;;;;;;13.90;7.53;;;;;;;7.06;94.66;98606.91;5079020;28;20047;-70
2022/04/26 04:52:54;;;;;;;12.43;6.43;;;;;;;7.20;93.66;98613.94;5051947;28;20041;-73
2022/04/26 04:55:40;;;;;;;13.05;6.97;;;;;;;7.25;93.53;98622.31;5050987;28;20063;-72
2022/04/26 04:58:25;;;;;;;10.82;6.55;;;;;;;7.51;91.95;98625.19;5036339;28;20472;-70
2022/04/26 05:01:10;;;;;;;8.68;5.03;;;;;;;7.80;90.59;98624.44;5051256;28;20089;-70
2022/04/26 05:03:55;;;;;;;11.20;5.32;;;;;;;7.93;89.34;98630.56;5050590;28;20041;-71
2022/04/26 05:06:40;;;;;;;12.48;5.50;;;;;;;8.10;87.50;98633.94;5050922;28;20472;-70
2022/04/26 05:09:24;;;;;;;10.43;5.20;;;;;;;8.30;86.86;98637.13;5068305;28;20036;-68
2022/04/26 05:12:11;;;;;;;8.77;5.20;;;;;;;8.32;86.35;98635.25;5037018;28;20037;-70
2022/04/26 05:14:56;;;;;;;7.68;4.25;;;;;;;8.83;90.07;98641.75;5051558;28;20076;-69
2022/04/26 05:17:41;;;;;;;9.75;5.70;;;;;;;8.76;87.23;98641.28;5050362;28;20049;-70
2022/04/26 05:20:26;;;;;;;9.23;4.22;;;;;;;8.85;86.42;98637.25;5050185;28;21384;-70
2022/04/26 05:26:17;;;;;;;8.90;4.10;;;;;;;9.38;83.86;98641.75;5061756;28;20094;-70
2022/04/26 05:29:05;;;;;;;7.43;3.45;;;;;;;9.59;82.75;98638.63;5081974;28;20045;-73
2022/04/26 05:31:50;;;;;;;10.20;5.22;;;;;;;9.78;79.86;98637.38;5067520;28;20068;-70
2022/04/26 05:34:35;;;;;;;8.52;4.53;;;;;;;9.74;80.51;98640.22;5069424;28;20556;-69
2022/04/26 05:37:20;;;;;;;12.70;5.72;;;;;;;9.88;82.11;98643.69;5062656;28;20036;-71
2022/04/26 05:40:05;;;;;;;5.53;3.35;;;;;;;10.34;82.72;98647.56;5082872;28;20044;-71
2022/04/26 05:42:50;;;;;;;11.60;5.15;;;;;;;10.53;79.68;98648.06;5070026;28;20068;-71
2022/04/26 05:45:35;;;;;;;6.13;4.00;;;;;;;10.48;79.28;98651.00;5070677;28;20044;-71
2022/04/26 05:48:20;;;;;;;10.73;5.90;;;;;;;10.63;77.35;98648.25;5055112;28;20049;-69
2022/04/26 05:51:05;;;;;;;11.25;5.65;;;;;;;10.48;76.58;98658.84;5056113;28;20059;-72
2022/04/26 05:53:50;;;;;;;5.85;3.55;;;;;;;10.41;78.57;98655.78;5054680;28;20069;-75
2022/04/26 05:56:35;;;;;;;13.40;6.45;;;;;;;10.74;76.00;98660.59;5068741;28;20041;-72
2022/04/26 05:59:21;;;;;;;14.07;6.35;;;;;;;10.80;76.09;98660.16;5068471;28;20033;-73
2022/04/26 06:02:06;;;;;;;11.70;6.15;;;;;;;10.95;76.22;98660.84;5053384;28;20057;-73
2022/04/26 06:04:50;;;;;;;8.48;5.15;;;;;;;11.42;74.68;98658.34;5054041;28;20049;-73
2022/04/26 06:07:35;;;;;;;9.05;5.88;;;;;;;11.38;73.64;98661.28;5057523;28;20475;-72
2022/04/26 06:10:20;;;;;;;9.80;5.25;;;;;;;11.57;73.57;98666.03;5065463;28;20037;-70
2022/04/26 06:13:08;;;;;;;9.25;5.32;;;;;;;12.02;71.16;98657.41;5054359;28;20037;-72
2022/04/26 06:15:53;;;;;;;9.88;4.88;;;;;;;11.64;69.40;98654.09;5067549;28;20033;-72
2022/04/26 06:18:38;;;;;;;9.27;5.63;;;;;;;11.67;71.58;98653.88;5068123;28;20091;-76
2022/04/26 06:21:25;;;;;;;13.98;7.25;;;;;;;11.24;73.29;98657.91;5067860;28;20098;-75
2022/04/26 06:24:10;;;;;;;14.57;6.75;;;;;;;12.02;71.36;98653.94;5068430;28;20037;-72
2022/04/26 06:26:55;;;;;;;12.15;6.82;;;;;;;12.27;69.95;98659.97;5052661;28;20041;-72
2022/04/26 06:29:40;;;;;;;11.55;5.95;;;;;;;12.59;68.45;98667.13;5076350;28;20048;-73
2022/04/26 06:32:25;;;;;;;8.73;4.95;;;;;;;12.82;67.54;98667.09;5068883;28;20057;-72
2022/04/26 06:35:10;;;;;;;11.60;6.03;;;;;;;13.32;66.17;98668.38;5067525;28;20036;-72
2022/04/26 06:37:58;;;;;;;11.75;5.63;;;;;;;13.55;63.31;98660.44;5039393;28;20033;-74
2022/04/26 06:40:42;;;;;;;8.23;5.13;;;;;;;13.76;62.55;98656.97;5053126;28;20048;-69
2022/04/26 06:43:29;;;;;;;10.30;5.38;;;;;;;14.17;60.55;98657.06;5054147;28;20115;-74
2022/04/26 06:46:14;;;;;;;8.55;4.55;;;;;;;13.43;59.61;98662.25;5066291;28;20503;-70
2022/04/26 06:49:00;;;;;;;6.88;4.00;;;;;;;12.77;62.90;98661.38;5054144;28;20060;-70
2022/04/26 06:51:44;;;;;;;6.47;3.28;;;;;;;12.23;62.35;98664.63;5052632;28;20494;-71
2022/04/26 06:54:29;;;;;;;5.97;3.10;;;;;;;12.53;61.73;98672.88;5067022;28;20410;-71
2022/04/26 06:57:15;;;;;;;7.82;4.32;;;;;;;13.48;64.19;98670.59;5053059;28;20103;-72
2022/04/26 07:00:00;;;;;;;10.90;5.82;;;;;;;14.45;60.71;98673.16;5066942;28;20077;-71
2022/04/26 07:02:45;;;;;;;8.02;4.18;;;;;;;14.87;59.51;98681.91;5081083;28;20052;-72
2022/04/26 07:05:30;;;;;;;9.63;5.38;;;;;;;15.20;56.46;98676.41;5053639;28;20044;-71
2022/04/26 07:08:15;;;;;;;8.25;4.68;;;;;;;15.66;55.81;98681.13;5089211;28;20045;-72
2022/04/26 07:11:00;;;;;;;9.35;4.93;;;;;;;14.67;57.83;98679.19;5073868;28;20037;-71
2022/04/26 07:13:44;;;;;;;16.05;6.40;;;;;;;14.97;57.01;98672.22;5072816;28;20054;-70
2022/04/26 07:16:29;;;;;;;8.98;5.38;;;;;;;15.68;54.75;98669.47;5073777;28;20051;-71
2022/04/26 07:19:15;;;;;;;9.02;4.80;;;;;;;16.04;53.88;98670.69;5072515;28;20040;-71
2022/04/26 07:22:00;;;;;;;11.70;6.78;;;;;;;16.13;53.85;98664.53;5044458;28;20059;-71
2022/04/26 07:24:45;;;;;;;13.95;6.47;;;;;;;16.00;52.89;98659.56;5044668;28;20036;-71
2022/04/26 07:27:33;;;;;;;8.95;5.00;;;;;;;16.18;53.67;98664.94;5072444;28;20467;-72
2022/04/26 07:30:19;;;;;;;11.38;6.43;;;;;;;16.00;54.28;98667.50;5058242;28;20044;-71
2022/04/26 07:36:12;;;;;;;7.20;3.90;;;;;;;16.21;51.75;98682.31;5072509;28;20044;-74
2022/04/26 07:39:00;;;;;;;8.32;4.30;;;;;;;16.65;50.20;98684.38;5072686;28;20398;-73
2022/04/26 07:41:47;;;;;;;5.63;3.53;;;;;;;15.21;51.89;98689.47;5058360;28;20552;-72
2022/04/26 07:44:45;;;;;;;5.57;2.80;;;;;;;15.49;50.17;98684.34;5046555;28;20040;-71
2022/04/26 07:47:30;;;;;;;4.25;3.53;;;;;;;15.50;49.60;98688.63;5044014;28;20041;-72
2022/04/26 07:50:15;;;;;;;5.50;2.83;;;;;;;15.06;50.30;98677.66;5072986;28;20052;-72
2022/04/26 07:53:01;;;;;;;6.47;3.10;;;;;;;15.89;54.31;98685.16;5058126;28;20052;-72
2022/04/26 07:55:50;;;;;;;6.00;3.90;;;;;;;15.69;50.87;98691.41;5057915;28;20115;-73
2022/04/26 07:58:38;;;;;;;8.93;4.10;;;;;;;15.06;55.06;98688.19;5072778;28;20044;-71
2022/04/26 08:01:23;;;;;;;6.57;3.95;;;;;;;15.35;53.97;98698.78;5057473;28;20040;-72
2022/04/26 08:04:08;;;;;;;7.38;4.20;;;;;;;14.69;55.08;98703.59;5057848;28;20376;-74
2022/04/26 08:06:52;;;;;;;6.03;3.42;;;;;;;15.15;56.11;98711.13;5071665;28;20036;-73
2022/04/26 08:09:39;;;;;;;5.57;3.50;;;;;;;15.08;55.84;98708.19;5072836;28;20041;-72
2022/04/26 08:12:25;;;;;;;8.13;4.63;;;;;;;14.31;56.50;98707.75;5071456;28;20115;-72
2022/04/26 08:15:12;;;;;;;9.38;5.18;;;;;;;14.21;57.51;98705.91;5071653;28;20139;-72
2022/04/26 08:17:56;;;;;;;8.27;4.78;;;;;;;14.07;58.05;98716.78;5072501;28;20036;-72
2022/04/26 08:20:41;;;;;;;9.77;4.40;;;;;;;13.94;58.31;98714.34;5071809;28;20456;-71
2022/04/26 08:23:27;;;;;;;6.18;3.95;;;;;;;14.19;57.54;98715.72;5043635;28;20041;-73
2022/04/26 08:29:14;;;;;;;6.57;4.03;;;;;;;14.85;55.57;98718.94;5059943;28;20070;-71
2022/04/26 08:31:59;;;;;;;8.02;4.55;;;;;;;14.51;56.60;98716.56;5057306;28;20068;-73
2022/04/26 08:34:44;;;;;;;6.63;4.07;;;;;;;13.71;58.77;98719.72;5071163;28;20498;-73
2022/04/26 08:37:29;;;;;;;6.90;4.15;;;;;;;14.38;57.46;98716.78;5029149;28;20098;-73
2022/04/26 08:40:14;;;;;;;6.38;3.60;;;;;;;14.90;58.48;98723.84;5056656;28;20032;-72
2022/04/26 08:42:59;;;;;;;7.07;3.97;;;;;;;14.64;54.69;98724.25;5071057;28;20043;-72
2022/04/26 08:45:46;;;;;;;6.55;4.35;;;;;;;13.72;60.47;98716.97;5057144;28;20535;-70
2022/04/26 08:51:34;;;;;;;6.82;4.05;;;;;;;15.07;56.44;98721.50;5071201;28;20040;-72
2022/04/26 08:54:19;;;;;;;4.85;3.08;;;;;;;14.73;57.49;98720.00;5056726;28;20055;-69
2022/04/26 08:57:05;;;;;;;6.65;3.80;;;;;;;14.70;58.72;98720.28;5056768;28;20037;-72
2022/04/26 08:59:52;;;;;;;4.95;3.63;;;;;;;14.89;58.95;98711.63;5071014;28;20079;-68
2022/04/26 09:02:39;;;;;;;5.68;3.67;;;;;;;14.93;57.56;98718.31;5042793;28;20123;-70
2022/04/26 09:05:24;;;;;;;5.97;3.28;;;;;;;14.73;57.32;98720.84;5056703;28;20043;-74
2022/04/26 09:08:26;;;;;;;6.45;3.47;;;;;;;15.26;57.43;98721.56;5070739;28;20032;-75
2022/04/26 09:11:27;;;;;;;6.45;3.83;;;;;;;15.96;54.26;98718.94;5056039;28;20395;-76
2022/04/26 09:14:32;;;;;;;6.40;3.95;;;;;;;16.37;52.18;98716.06;5056494;28;20428;-78
2022/04/26 09:17:19;;;;;;;4.68;3.20;;;;;;;16.23;53.30;98723.50;5099166;28;20460;-75
2022/04/26 09:20:04;;;;;;;6.28;3.85;;;;;;;17.47;52.89;98717.19;5070538;28;20044;-66
2022/04/26 09:22:59;;;;;;;7.13;4.50;;;;;;;17.35;48.99;98721.88;5071814;28;20059;-65
2022/04/26 09:25:44;;;;;;;8.52;3.92;;;;;;;16.82;49.16;98719.81;5072234;28;20144;-64
2022/04/26 09:28:30;;;;;;;6.20;4.13;;;;;;;16.98;48.50;98720.97;5070840;28;20525;-65
2022/04/26 09:31:26;;;;;;;8.82;4.38;;;;;;;17.20;47.64;98726.88;5064602;28;20383;-65
2022/04/26 09:34:12;;;;;;;8.40;4.38;;;;;;;16.25;49.56;98726.00;5071697;28;20036;-65
2022/04/26 09:37:04;;;;;;;8.85;4.28;;;;;;;15.77;51.03;98729.38;5099249;28;20036;-66
2022/04/26 09:40:08;;;;;;;8.07;4.45;;;;;;;15.02;54.82;98728.03;5069547;28;20167;-65
2022/04/26 09:42:52;;;;;;;8.57;4.45;;;;;;;14.52;55.00;98720.91;5070090;28;20041;-66
2022/04/26 09:45:53;;;;;;;6.68;4.00;;;;;;;14.60;55.14;98734.25;5070187;28;20162;-66
2022/04/26 09:48:39;;;;;;;6.45;4.07;;;;;;;13.84;56.74;98732.69;5071058;28;20044;-66
2022/04/26 09:51:24;;;;;;;7.07;4.18;;;;;;;13.72;57.81;98727.50;5070013;28;20044;-67
2022/04/26 09:54:09;;;;;;;7.00;4.05;;;;;;;13.43;58.69;98731.50;5071001;28;20540;-68
2022/04/26 09:56:54;;;;;;;8.57;4.28;;;;;;;13.49;58.39;98731.97;5070211;28;20051;-70
2022/04/26 09:59:42;;;;;;;8.13;4.50;;;;;;;13.00;59.89;98733.16;5071303;28;20162;-70
2022/04/26 10:02:34;;;;;;;5.47;3.63;;;;;;;13.20;59.06;98727.25;5070604;28;20063;-68
2022/04/26 10:05:21;;;;;;;6.82;4.22;;;;;;;13.03;59.62;98719.78;5071360;28;20106;-68
2022/04/26 10:08:07;;;;;;;7.93;4.65;;;;;;;12.62;61.03;98724.69;5069973;28;20074;-66
2022/04/26 10:10:52;;;;;;;9.13;4.63;;;;;;;12.67;61.19;98722.56;5056577;28;20040;-65
2022/04/26 10:13:43;;;;;;;7.03;4.25;;;;;;;12.82;60.64;98722.31;5070723;28;20467;-69
2022/04/26 10:16:28;;;;;;;7.47;4.63;;;;;;;12.74;61.20;98722.06;5070776;28;20040;-69
2022/04/26 10:19:16;;;;;;;7.03;4.53;;;;;;;12.50;61.67;98721.22;5070255;28;20045;-68
2022/04/26 10:22:00;;;;;;;7.32;4.63;;;;;;;13.27;70.92;98713.50;5071614;28;20036;-69
2022/04/26 10:25:12;;;;;;;19.48;6.97;;;;;;;15.64;60.36;98705.03;5101855;28;20041;-58
2022/04/26 10:28:29;;;;;;;9.95;5.07;;;;;;;16.78;62.01;98712.31;5068407;28;20033;-57
2022/04/26 10:31:14;;;;;;;8.55;4.82;;;;;;;17.18;56.63;98718.22;5062380;28;20036;-58
2022/04/26 10:33:59;;;;;;;10.77;5.10;;;;;;;17.18;53.19;98711.13;5069009;28;20051;-58
2022/04/26 10:36:45;;;;;;;9.15;4.80;;;;;;;17.63;56.85;98715.69;5069387;28;20395;-59
2022/04/26 10:39:38;;;;;;;8.00;4.28;;;;;;;18.12;53.06;98720.53;5060505;28;20138;-57
2022/04/26 10:42:28;;;;;;;7.47;4.00;;;;;;;16.53;52.44;98719.91;5060164;28;20033;-56
2022/04/26 10:45:13;;;;;;;7.45;3.85;;;;;;;16.37;51.24;98719.53;5051740;28;20045;-69
2022/04/26 10:48:26;;;;;;;6.68;3.50;;;;;;;14.66;54.59;98725.81;5053431;28;20431;-66
2022/04/26 10:51:32;;;;;;;7.70;3.63;;;;;;;13.95;56.26;98718.63;5053965;28;20043;-65
2022/04/26 10:54:45;;;;;;;5.25;3.60;;;;;;;14.00;56.13;98727.00;5083598;28;20052;-66
2022/04/26 10:57:42;;;;;;;7.85;4.10;;;;;;;13.95;55.85;98731.81;5053187;28;20040;-66
2022/04/26 11:00:33;;;;;;;5.90;3.60;;;;;;;15.10;69.69;98718.59;5053163;28;20836;-68
2022/04/26 11:03:19;;;;;;;8.32;3.90;;;;;;;16.04;56.25;98718.25;5054432;28;20049;-69
2022/04/26 11:06:05;;;;;;;8.38;4.10;;;;;;;15.31;62.66;98713.22;5052967;28;20045;-65
2022/04/26 11:09:09;;;;;;;7.38;3.97;;;;;;;15.33;53.71;98721.00;5065791;28;20037;-67
2022/04/26 11:11:56;;;;;;;6.18;3.75;;;;;;;13.92;57.23;98725.00;5072587;28;20032;-66
2022/04/26 11:14:41;;;;;;;6.50;3.50;;;;;;;13.63;57.59;98723.81;5074278;28;20059;-69
2022/04/26 11:17:29;;;;;;;6.93;3.45;;;;;;;13.66;57.93;98730.63;5072586;28;20036;-68
2022/04/26 11:20:17;;;;;;;5.50;3.58;;;;;;;13.47;58.83;98723.34;5073716;28;20060;-68
2022/04/26 11:27:59;;;;;;;16.38;4.05;;;;;;;14.96;65.70;98717.19;5072610;28;20044;-59
2022/04/26 11:29:22;;;;;;;7.50;3.70;;;;;;;14.81;54.01;98729.91;5057555;28;20049;-65
2022/04/26 11:32:09;;;;;;;6.10;3.47;;;;;;;14.01;56.09;98728.66;5077482;28;20032;-65
2022/04/26 11:34:53;;;;;;;5.68;3.05;;;;;;;13.72;63.68;98727.50;5073413;28;20056;-64
2022/04/26 11:37:46;;;;;;;6.43;3.28;;;;;;;13.73;57.86;98720.41;5072439;28;20796;-68
2022/04/26 11:40:34;;;;;;;5.10;3.38;;;;;;;13.29;58.64;98726.50;5072922;28;20037;-66
2022/04/26 11:43:21;;;;;;;6.30;4.00;;;;;;;13.04;59.28;98721.44;5073050;28;20117;-70
2022/04/26 11:46:07;;;;;;;5.43;3.60;;;;;;;13.37;58.50;98718.00;5073202;28;20040;-68
2022/04/26 11:48:56;;;;;;;5.50;3.58;;;;;;;12.94;60.21;98718.69;5072930;28;20056;-66
2022/04/26 11:52:00;;;;;;;6.93;3.60;;;;;;;13.22;59.63;98718.28;5071881;28;20059;-64
2022/04/26 11:54:44;;;;;;;6.07;3.88;;;;;;;13.57;58.64;98720.84;5073291;28;20422;-67
2022/04/26 11:57:29;;;;;;;7.22;3.90;;;;;;;13.43;59.06;98713.06;5086564;28;20047;-69
2022/04/26 12:00:16;;;;;;;5.82;3.63;;;;;;;13.52;59.14;98716.78;5071954;28;20045;-69
2022/04/26 12:03:02;;;;;;;6.35;3.78;;;;;;;13.31;60.27;98708.81;5072988;28;20479;-67
2022/04/26 12:05:54;;;;;;;8.43;4.25;;;;;;;13.73;57.93;98699.34;5043805;28;20045;-68
2022/04/26 12:08:42;;;;;;;;;;;;;;;13.70;59.16;98696.97;5072873;28;20036;-68
2022/04/26 12:11:29;;;;;;;9.15;4.10;;;;;;;13.62;59.06;98706.34;5071529;28;19961;-65
2022/04/26 12:14:16;;;;;;;6.07;4.05;;;;;;;13.67;59.96;98691.03;5072540;28;20044;-67
2022/04/26 12:17:03;;;;;;;7.80;4.03;;;;;;;13.80;59.33;98695.25;5071490;28;20048;-68
2022/04/26 12:19:51;;;;;;;7.03;3.97;;;;;;;14.08;58.73;98681.56;5071270;28;20056;-69
2022/04/26 12:22:38;;;;;;;7.00;3.65;;;;;;;14.32;57.18;98683.06;5071916;28;20116;-68
2022/04/26 12:25:24;;;;;;;5.68;3.70;;;;;;;14.10;58.86;98672.56;5074198;28;20036;-69
2022/04/26 12:28:09;;;;;;;7.25;4.00;;;;;;;14.13;58.43;98668.84;5072794;28;20040;-67
2022/04/26 12:30:55;;;;;;;5.25;3.97;;;;;;;14.45;57.35;98665.25;5072355;28;20037;-68
2022/04/26 12:33:39;;;;;;;8.63;4.10;;;;;;;15.18;54.61;98668.63;5072048;28;20044;-67
2022/04/26 12:36:24;;;;;;;7.22;3.92;;;;;;;15.40;54.54;98664.06;5071882;28;20037;-65
2022/04/26 12:39:08;;;;;;;8.50;4.05;;;;;;;15.93;52.80;98655.81;5072069;28;20060;-64
2022/04/26 12:41:56;;;;;;;6.93;4.07;;;;;;;15.73;53.53;98659.31;5071946;28;20697;-65
2022/04/26 12:45:03;;;;;;;8.13;3.97;;;;;;;15.72;53.76;98659.44;5071055;28;20044;-66
2022/04/26 12:51:24;;;;;;;6.57;3.60;;;;;;;17.49;49.61;98647.19;5071514;28;20131;-65
2022/04/26 12:54:12;;;;;;;8.80;3.90;;;;;;;16.37;52.32;98645.53;5071439;28;20368;-65
2022/04/26 12:57:03;;;;;;;7.32;3.92;;;;;;;16.31;52.39;98650.56;5070296;28;20384;-66
2022/04/26 12:59:48;;;;;;;7.10;4.07;;;;;;;16.62;51.15;98650.28;5071396;28;20667;-66
2022/04/26 13:02:33;;;;;;;6.80;4.00;;;;;;;16.72;50.84;98643.16;5071397;28;20383;-67
2022/04/26 13:05:19;;;;;;;7.38;3.80;;;;;;;17.01;51.02;98640.47;5070181;28;20132;-64
2022/04/26 13:08:04;;;;;;;6.90;4.45;;;;;;;16.70;51.55;98639.81;5070380;28;20048;-66
2022/04/26 13:10:49;;;;;;;9.05;4.93;;;;;;;15.76;52.71;98637.91;5071744;28;20051;-67
2022/04/26 13:13:35;;;;;;;7.53;4.25;;;;;;;15.35;54.03;98635.47;5056634;28;20056;-66
2022/04/26 13:16:20;;;;;;;9.20;4.97;;;;;;;15.74;51.75;98628.44;5071371;28;20426;-66
2022/04/26 13:19:05;;;;;;;7.85;4.65;;;;;;;16.05;51.51;98623.00;5071609;28;20040;-66
2022/04/26 13:21:49;;;;;;;9.95;3.97;;;;;;;16.62;49.91;98629.13;5070508;28;20048;-66
2022/04/26 13:24:34;;;;;;;8.98;4.97;;;;;;;16.79;49.57;98627.53;5071459;28;20041;-67
2022/04/26 13:27:19;;;;;;;7.70;4.55;;;;;;;16.50;50.30;98631.13;5071352;28;20482;-68
2022/04/26 13:30:05;;;;;;;7.55;4.38;;;;;;;15.56;52.72;98625.69;5072340;28;20187;-67
2022/04/26 13:32:52;;;;;;;7.40;4.32;;;;;;;16.06;52.51;98615.91;5074090;28;20040;-69
2022/04/26 13:35:38;;;;;;;6.35;4.03;;;;;;;16.50;51.28;98623.19;5071440;28;20395;-65
2022/04/26 13:38:24;;;;;;;11.70;4.38;;;;;;;16.23;51.44;98620.41;5056428;28;20048;-66
2022/04/26 13:41:09;;;;;;;8.50;4.10;;;;;;;16.25;51.79;98605.22;5070627;28;20047;-66
2022/04/26 13:43:54;;;;;;;9.80;5.30;;;;;;;16.52;50.83;98605.38;5071427;28;20041;-67
2022/04/26 13:46:38;;;;;;;13.95;7.05;;;;;;;16.46;50.39;98608.63;5070331;28;20040;-66
2022/04/26 13:49:23;;;;;;;10.45;5.15;;;;;;;16.58;50.64;98609.25;5071620;28;20045;-66
2022/04/26 13:52:11;;;;;;;9.07;3.83;;;;;;;17.13;48.79;98607.53;5070408;28;20037;-65
2022/04/26 13:54:56;;;;;;;9.90;4.45;;;;;;;17.28;48.28;98607.00;5071483;28;20037;-68
2022/04/26 13:57:41;;;;;;;6.38;4.22;;;;;;;17.63;47.68;98610.56;5073557;28;20048;-67
2022/04/26 14:00:26;;;;;;;6.43;3.78;;;;;;;18.46;46.27;98599.56;5075044;28;20045;-66
2022/04/26 14:03:10;;;;;;;7.22;3.63;;;;;;;18.20;46.40;98608.44;5075229;28;20058;-66
2022/04/26 14:05:55;;;;;;;6.03;3.35;;;;;;;16.96;49.57;98614.44;5074993;28;20052;-65
2022/04/26 14:08:40;;;;;;;5.53;3.33;;;;;;;17.45;49.37;98606.13;5074604;28;20055;-65
2022/04/26 14:11:25;;;;;;;7.07;3.92;;;;;;;17.67;47.57;98595.19;5074732;28;20041;-66
2022/04/26 14:23:20;;;;;;;7.90;4.20;;;;;;;19.11;43.84;98591.94;5074778;28;20055;-67
2022/04/26 14:26:05;;;;;;;6.13;3.90;;;;;;;18.74;43.89;98593.19;5074003;28;20040;-67
2022/04/26 14:28:49;;;;;;;6.40;3.88;;;;;;;18.86;43.90;98588.41;5073803;28;20481;-66
2022/04/26 14:31:36;;;;;;;6.88;4.10;;;;;;;19.03;43.24;98589.28;5073095;28;20364;-67
2022/04/26 14:34:22;;;;;;;8.82;3.85;;;;;;;19.23;43.11;98575.69;5074449;28;20048;-66
2022/04/26 14:37:06;;;;;;;7.10;4.30;;;;;;;18.98;43.59;98581.78;5073861;28;20086;-67
2022/04/26 14:39:52;;;;;;;4.97;3.60;;;;;;;19.42;41.89;98580.66;5074875;28;20044;-67
2022/04/26 14:42:38;;;;;;;8.85;4.13;;;;;;;19.28;42.50;98591.97;5059504;28;20090;-67
2022/04/26 14:45:22;;;;;;;6.57;3.65;;;;;;;19.96;41.57;98586.38;5074487;28;20094;-65
2022/04/26 14:48:07;;;;;;;11.57;5.25;;;;;;;19.95;40.41;98590.03;5059344;28;20037;-63
2022/04/26 14:50:52;;;;;;;6.88;4.30;;;;;;;20.37;39.18;98587.28;5073431;28;20045;-67
2022/04/26 14:53:38;;;;;;;8.68;4.05;;;;;;;18.87;41.84;98593.56;5072863;28;20051;-66
2022/04/26 14:56:23;;;;;;;6.70;4.15;;;;;;;19.23;41.91;98591.63;5074105;28;20041;-66
2022/04/26 14:59:08;;;;;;;9.10;5.03;;;;;;;18.52;42.95;98593.66;5074207;28;20064;-65
2022/04/26 15:01:53;;;;;;;7.93;4.60;;;;;;;18.36;43.56;98588.28;5052750;28;20059;-67
2022/04/26 15:04:39;;;;;;;10.23;3.90;;;;;;;18.10;44.15;98593.44;5054572;28;20386;-68
2022/04/26 15:07:24;;;;;;;9.57;5.20;;;;;;;18.26;43.82;98588.41;5053892;28;20531;-66
2022/04/26 15:10:08;;;;;;;7.10;3.95;;;;;;;18.20;44.21;98585.41;5073003;28;20040;-67
2022/04/26 15:19:00;;;;;;;8.38;4.22;;;;;;;18.57;43.55;98580.72;5073977;28;20044;-67
2022/04/26 15:21:44;;;;;;;8.02;4.18;;;;;;;18.02;45.36;98582.00;5074075;28;20039;-67
2022/04/26 15:24:29;;;;;;;6.47;4.15;;;;;;;17.55;46.28;98579.56;5072791;28;20041;-67
2022/04/26 15:27:15;;;;;;;6.05;3.92;;;;;;;16.60;48.50;98592.25;5058870;28;20045;-66
2022/04/26 15:30:02;;;;;;;5.80;3.42;;;;;;;16.22;49.76;98591.50;5073898;28;20036;-66
2022/04/26 15:32:47;;;;;;;5.50;3.30;;;;;;;16.67;48.77;98587.22;5059049;28;20128;-67
2022/04/26 15:35:32;;;;;;;4.95;3.03;;;;;;;16.33;49.60;98585.19;5076491;28;20482;-67
2022/04/26 15:38:18;;;;;;;5.90;3.20;;;;;;;15.70;51.29;98579.56;5074167;28;20037;-67
2022/04/26 15:41:05;;;;;;;6.38;3.30;;;;;;;15.48;52.65;98582.38;5073942;28;20041;-66
2022/04/26 15:43:50;;;;;;;7.63;3.70;;;;;;;15.31;52.70;98576.00;5072158;28;20032;-67
2022/04/26 15:46:35;;;;;;;6.07;3.95;;;;;;;14.84;54.12;98574.06;5073511;28;20048;-63
2022/04/26 15:49:20;;;;;;;8.23;3.38;;;;;;;14.78;54.32;98570.16;5076591;28;20170;-67
2022/04/26 15:52:07;;;;;;;6.57;3.35;;;;;;;14.72;55.15;98579.41;5065001;28;20044;-68
2022/04/26 15:54:52;;;;;;;7.45;4.25;;;;;;;15.24;53.67;98573.06;5072468;28;20041;-67
2022/04/26 15:57:37;;;;;;;7.05;3.88;;;;;;;15.15;53.63;98577.41;5072492;28;20037;-66
2022/04/26 16:00:22;;;;;;;6.55;4.13;;;;;;;15.12;53.95;98576.84;5072807;28;20064;-65
2022/04/26 16:03:06;;;;;;;8.32;3.97;;;;;;;15.15;53.83;98566.84;5053670;28;20049;-63
2022/04/26 16:05:51;;;;;;;6.55;3.75;;;;;;;15.15;53.71;98573.94;5079104;28;20037;-64
2022/04/26 16:08:38;;;;;;;6.65;4.07;;;;;;;15.17;53.92;98573.78;5084082;27;20570;-65
2022/04/26 16:20:34;;;;;;;6.78;4.13;;;;;;;15.02;54.60;98577.69;5069053;28;20041;-62
2022/04/26 16:23:19;;;;;;;8.20;3.70;;;;;;;14.95;54.52;98579.19;5061900;28;20037;-65
2022/04/26 16:26:06;;;;;;;6.35;3.83;;;;;;;14.79;55.00;98571.81;5051889;28;20040;-65
2022/04/26 16:28:51;;;;;;;6.63;3.53;;;;;;;14.63;56.63;98574.97;5050606;28;20043;-64
2022/04/26 16:31:38;;;;;;;5.38;3.58;;;;;;;14.72;56.14;98574.16;5061201;28;20036;-64
2022/04/26 16:34:23;;;;;;;5.57;3.20;;;;;;;15.10;54.69;98576.16;5069826;28;20074;-66
2022/04/26 16:37:08;;;;;;;6.28;2.92;;;;;;;14.77;55.88;98585.13;5062882;28;20041;-64
2022/04/26 16:39:53;;;;;;;6.70;3.70;;;;;;;14.62;56.05;98581.22;5063302;28;20109;-64
2022/04/26 16:42:39;;;;;;;5.72;2.75;;;;;;;14.59;57.10;98576.22;5050245;28;20094;-65
2022/04/26 16:45:24;;;;;;;5.90;3.15;;;;;;;14.68;56.96;98574.56;5049320;28;20369;-68
2022/04/26 16:48:09;;;;;;;6.15;2.97;;;;;;;14.51;57.38;98580.34;5053055;28;20055;-65
2022/04/26 16:50:54;;;;;;;5.97;3.15;;;;;;;14.47;57.79;98583.41;5050765;28;20380;-62
2022/04/26 16:53:39;;;;;;;4.65;2.78;;;;;;;14.41;57.59;98575.06;5052401;28;20052;-63
2022/04/26 16:56:23;;;;;;;4.60;2.95;;;;;;;14.39;57.78;98571.72;5051736;28;20102;-62
2022/04/26 16:59:09;;;;;;;4.75;2.72;;;;;;;14.50;57.49;98588.41;5050619;28;20715;-63
2022/04/26 17:01:55;;;;;;;3.83;2.47;;;;;;;14.29;58.41;98581.41;5051372;28;20052;-64
2022/04/26 17:04:41;;;;;;;7.43;3.08;;;;;;;13.96;59.33;98583.34;5051737;28;20044;-64
2022/04/26 17:07:25;;;;;;;5.25;3.00;;;;;;;14.87;59.13;98594.88;5052625;28;20041;-64
2022/04/26 17:10:10;;;;;;;6.25;2.70;;;;;;;14.75;62.40;98587.06;5070853;28;20052;-63
2022/04/26 17:12:55;;;;;;;4.28;2.65;;;;;;;14.64;57.72;98584.53;5070401;28;20066;-62
2022/04/26 17:15:41;;;;;;;4.75;2.97;;;;;;;14.28;57.92;98585.84;5071609;28;20037;-62
2022/04/26 17:18:26;;;;;;;4.97;2.33;;;;;;;14.40;64.59;98583.09;5042076;28;20048;-65
2022/04/26 17:21:10;;;;;;;5.57;3.05;;;;;;;14.06;58.73;98584.25;5046176;28;20155;-63
2022/04/26 17:23:56;;;;;;;5.22;2.60;;;;;;;13.87;72.36;98587.63;5055888;28;20476;-60
2022/04/26 17:26:42;;;;;;;4.45;2.53;;;;;;;14.22;60.88;98590.81;5050451;28;20060;-67